Time;durP1;ratioP1;P1;durP2;ratioP2;P2;SDS_P1;SDS_P2;PMS_P1;PMS_P2;Temp;Humidity;BMP_temperature;BMP_pressure;BME280_temperature;BME280_humidity;BME280_pressure;Samples;Min_cycle;Max_cycle;Signal;HPM_P1;HPM_P2
2021/07/15 04:43:58;;;;;;;23.12;11.00;;;;;;;32.84;48.11;98568.95;1682044;80;21171;-52
2021/07/15 04:46:27;;;;;;;22.07;10.95;;;;;;;33.02;46.94;98559.73;1703717;82;20991;-52
2021/07/15 04:48:54;;;;;;;22.87;10.63;;;;;;;32.88;46.30;98562.23;1711165;81;21043;-53
2021/07/15 04:51:22;;;;;;;21.30;10.10;;;;;;;32.73;47.07;98561.14;1704150;83;21555;-53
2021/07/15 04:53:51;;;;;;;23.55;10.50;;;;;;;33.03;46.99;98558.58;1684273;84;21563;-56
2021/07/15 04:56:18;;;;;;;18.85;10.43;;;;;;;33.48;45.88;98555.64;1700401;82;21043;-46
2021/07/15 04:58:46;;;;;;;20.23;10.70;;;;;;;33.54;45.24;98559.63;1680148;82;21123;-56
2021/07/15 05:01:15;;;;;;;19.40;10.78;;;;;;;33.18;45.54;98556.31;1689812;82;21133;-46
2021/07/15 05:03:43;;;;;;;21.60;10.63;;;;;;;32.77;46.91;98560.64;1697193;81;21007;-53
2021/07/15 05:06:11;;;;;;;21.23;10.35;;;;;;;32.71;47.24;98564.24;1632122;84;21092;-54
2021/07/15 05:08:40;;;;;;;22.75;10.68;;;;;;;32.66;47.65;98565.90;1696959;82;21685;-53
2021/07/15 05:11:10;;;;;;;21.23;10.03;;;;;;;32.67;47.51;98554.41;1665000;83;21052;-58
2021/07/15 05:13:40;;;;;;;19.62;10.30;;;;;;;32.70;47.55;98563.25;1700775;82;21573;-53
2021/07/15 05:16:08;;;;;;;20.62;9.83;;;;;;;32.67;47.70;98555.77;1701359;81;21101;-54
2021/07/15 05:18:36;;;;;;;19.98;10.10;;;;;;;32.68;48.04;98556.77;1718525;81;21149;-54
2021/07/15 05:21:05;;;;;;;21.68;9.88;;;;;;;32.71;47.69;98551.97;1710629;82;21043;-55
2021/07/15 05:23:34;;;;;;;21.15;10.50;;;;;;;32.75;48.02;98553.41;1692284;81;20997;-48
2021/07/15 05:26:03;;;;;;;18.27;9.73;;;;;;;32.82;47.90;98553.53;1724304;80;21529;-48
2021/07/15 05:28:32;;;;;;;20.30;10.25;;;;;;;32.99;47.69;98548.98;1751619;80;21549;-46
2021/07/15 05:31:00;;;;;;;;;;;;;;;33.12;47.91;98542.76;1752218;80;21035;-50
2021/07/15 05:33:29;;;;;;;18.62;9.68;;;;;;;33.30;47.27;98540.31;1752117;81;20395;-49
2021/07/15 05:36:00;;;;;;;16.67;9.18;;;;;;;33.43;46.61;98543.07;1756891;80;21114;-49
2021/07/15 05:38:28;;;;;;;22.05;9.70;;;;;;;33.45;46.09;98540.78;1752295;80;21019;-46
2021/07/15 05:40:55;;;;;;;17.00;9.30;;;;;;;33.51;46.31;98540.67;1751966;80;21027;-43
2021/07/15 05:43:23;;;;;;;20.97;9.45;;;;;;;33.67;46.09;98531.54;1759437;80;21136;-46
2021/07/15 05:45:52;;;;;;;21.73;9.90;;;;;;;33.86;45.62;98535.50;1744425;81;21545;-46
2021/07/15 05:48:19;;;;;;;20.08;9.25;;;;;;;33.98;45.16;98539.98;1718584;80;21078;-45
2021/07/15 05:50:47;;;;;;;18.30;9.65;;;;;;;34.10;44.78;98532.91;1744459;81;21030;-47
2021/07/15 05:53:16;;;;;;;20.62;9.18;;;;;;;34.16;44.32;98542.94;1749026;80;21534;-46
2021/07/15 05:55:44;;;;;;;15.72;8.78;;;;;;;34.20;43.94;98538.31;1748855;80;20980;-47
2021/07/15 05:58:11;;;;;;;19.50;8.78;;;;;;;34.34;43.72;98540.61;1744594;80;21548;-51
2021/07/15 06:00:39;;;;;;;14.68;8.20;;;;;;;34.55;43.18;98537.95;1745280;81;21502;-50
2021/07/15 06:03:07;;;;;;;15.05;8.23;;;;;;;34.65;42.62;98529.07;1744542;81;21090;-49
2021/07/15 06:05:35;;;;;;;16.25;8.55;;;;;;;34.69;42.55;98531.23;1738157;81;21068;-49
2021/07/15 06:08:03;;;;;;;16.02;8.38;;;;;;;34.79;42.01;98530.56;1735497;81;21152;-52
2021/07/15 06:10:30;;;;;;;17.23;8.58;;;;;;;34.93;41.36;98525.84;1744405;81;21545;-50
2021/07/15 06:12:59;;;;;;;17.75;8.23;;;;;;;34.92;41.74;98527.55;1747739;81;21036;-47
2021/07/15 06:15:32;;;;;;;16.27;8.27;;;;;;;35.00;41.18;98527.86;1755384;79;21014;-47
2021/07/15 06:18:02;;;;;;;19.00;8.00;;;;;;;35.06;41.08;98527.12;1745600;81;21624;-45
2021/07/15 06:20:31;;;;;;;18.02;7.78;;;;;;;35.09;41.00;98518.13;1759866;80;21517;-47
2021/07/15 06:23:00;;;;;;;21.37;8.28;;;;;;;35.15;40.98;98520.53;1749640;80;20987;-50
2021/07/15 06:25:28;;;;;;;15.88;7.67;;;;;;;35.20;40.88;98512.74;1743239;81;21506;-49
2021/07/15 06:27:57;;;;;;;15.30;8.03;;;;;;;35.26;40.63;98521.39;1756764;80;20987;-55
2021/07/15 06:30:25;;;;;;;14.07;8.08;;;;;;;35.30;40.36;98524.38;1781159;80;21026;-46
2021/07/15 06:32:54;;;;;;;16.85;7.72;;;;;;;35.35;40.68;98519.91;1783229;79;21027;-56
2021/07/15 06:35:23;;;;;;;15.13;7.83;;;;;;;35.45;40.28;98514.92;1773286;78;21592;-54
2021/07/15 06:37:53;;;;;;;15.05;8.45;;;;;;;35.51;39.83;98517.50;1755232;79;21497;-54
2021/07/15 06:40:28;;;;;;;18.77;8.18;;;;;;;35.59;39.12;98519.11;1745674;80;21091;-58
2021/07/15 06:42:56;;;;;;;15.32;8.00;;;;;;;35.59;38.69;98515.78;1753732;79;21022;-56
2021/07/15 06:45:23;;;;;;;19.00;7.92;;;;;;;35.56;38.87;98520.67;1747636;81;21046;-52
2021/07/15 06:47:51;;;;;;;18.52;8.30;;;;;;;35.65;39.00;98510.14;1757100;80;21499;-54
2021/07/15 06:50:19;;;;;;;16.67;8.38;;;;;;;35.64;39.12;98510.53;1751815;81;21113;-52
2021/07/15 06:52:48;;;;;;;13.43;8.43;;;;;;;35.68;39.43;98511.93;1758448;80;21595;-46
2021/07/15 06:55:16;;;;;;;18.57;9.25;;;;;;;35.70;38.69;98506.25;1721006;82;21047;-47
2021/07/15 06:57:45;;;;;;;16.80;9.15;;;;;;;35.58;38.44;98501.09;1733389;81;21034;-47
2021/07/15 07:00:15;;;;;;;16.42;8.25;;;;;;;35.44;38.87;98510.00;1750131;81;20992;-48
2021/07/15 07:02:44;;;;;;;17.62;8.50;;;;;;;35.43;38.59;98500.21;1756038;81;21069;-55
2021/07/15 07:05:12;;;;;;;16.50;8.68;;;;;;;35.44;38.58;98503.73;1747481;80;21041;-48
2021/07/15 07:07:39;;;;;;;20.55;8.35;;;;;;;35.48;38.57;98504.55;1752697;81;21094;-56
2021/07/15 07:10:09;;;;;;;14.85;8.13;;;;;;;35.60;38.31;98497.38;1749599;80;21011;-47
2021/07/15 07:12:36;;;;;;;;;;;;;;;35.68;38.14;98501.75;1723677;81;21537;-52
2021/07/15 07:15:06;;;;;;;19.98;8.20;;;;;;;35.77;38.17;98497.27;1718528;81;20167;-51
2021/07/15 07:17:34;;;;;;;15.05;7.75;;;;;;;35.83;38.09;98497.11;1716028;82;21139;-52
2021/07/15 07:20:04;;;;;;;21.35;8.05;;;;;;;35.95;37.78;98498.75;1750168;80;21070;-55
2021/07/15 07:22:31;;;;;;;23.52;7.42;;;;;;;35.94;37.11;98499.34;1739419;81;21544;-54
2021/07/15 07:24:59;;;;;;;17.57;7.42;;;;;;;35.82;36.64;98498.28;1681544;83;21600;-58
2021/07/15 07:27:27;;;;;;;12.90;7.28;;;;;;;35.73;36.48;98503.31;1698012;82;21028;-49
2021/07/15 07:29:55;;;;;;;17.87;7.67;;;;;;;35.71;36.95;98498.81;1704984;83;21036;-50
2021/07/15 07:32:24;;;;;;;18.40;7.50;;;;;;;35.63;36.45;98498.00;1748292;80;21490;-46
2021/07/15 07:34:52;;;;;;;14.03;7.65;;;;;;;35.55;36.76;98499.11;1757063;80;21513;-51
2021/07/15 07:37:20;;;;;;;16.32;8.33;;;;;;;35.61;36.73;98500.31;1752593;81;21084;-47
2021/07/15 07:39:47;;;;;;;18.40;8.18;;;;;;;35.52;36.35;98494.41;1749652;81;21041;-51
2021/07/15 07:42:14;;;;;;;17.37;8.38;;;;;;;35.38;36.26;98503.28;1701649;83;21047;-49
2021/07/15 07:44:42;;;;;;;12.37;7.47;;;;;;;35.25;36.64;98500.66;1703548;83;21158;-48
2021/07/15 07:47:10;;;;;;;17.30;7.92;;;;;;;35.16;36.70;98503.73;1721898;82;21494;-49
2021/07/15 07:49:37;;;;;;;14.90;7.10;;;;;;;35.04;36.83;98508.92;1754086;81;21019;-51
2021/07/15 07:52:05;;;;;;;18.55;7.40;;;;;;;34.91;36.91;98508.96;1758920;80;21011;-56
2021/07/15 07:54:34;;;;;;;;;;;;;;;34.74;37.02;98508.22;1753178;80;21548;-48
2021/07/15 07:57:03;;;;;;;17.45;7.53;;;;;;;34.53;37.31;98510.19;1746988;81;20383;-48
2021/07/15 07:59:31;;;;;;;;;;;;;;;34.29;37.21;98509.48;1742622;81;21006;-52
2021/07/15 08:01:59;;;;;;;13.98;7.05;;;;;;;34.06;37.26;98512.34;1752654;81;20395;-47
2021/07/15 08:04:27;;;;;;;16.35;7.50;;;;;;;33.82;37.86;98507.33;1749767;81;21032;-48
2021/07/15 08:06:55;;;;;;;12.78;6.47;;;;;;;33.65;38.46;98511.39;1744158;81;21513;-53
2021/07/15 08:09:24;;;;;;;18.45;7.33;;;;;;;33.57;38.77;98512.46;1747320;80;21077;-47
2021/07/15 08:11:54;;;;;;;15.20;7.05;;;;;;;33.56;38.28;98517.72;1749880;80;21034;-47
2021/07/15 08:14:23;;;;;;;16.75;7.03;;;;;;;33.49;38.34;98513.50;1757032;81;21137;-48
2021/07/15 08:16:51;;;;;;;15.20;7.17;;;;;;;33.47;38.55;98509.77;1747711;81;20991;-46
2021/07/15 08:19:20;;;;;;;13.00;7.05;;;;;;;33.36;38.75;98511.53;1751631;81;21038;-49
2021/07/15 08:21:47;;;;;;;14.60;7.10;;;;;;;33.24;38.93;98513.10;1749313;81;21054;-49
2021/07/15 08:24:15;;;;;;;17.77;7.28;;;;;;;33.21;39.55;98507.02;1755982;80;21038;-48
2021/07/15 08:26:44;;;;;;;17.82;7.00;;;;;;;33.17;40.43;98517.88;1744517;81;21085;-49
2021/07/15 08:29:12;;;;;;;15.55;6.95;;;;;;;33.07;39.70;98523.95;1689658;81;21505;-51
2021/07/15 08:31:39;;;;;;;14.15;7.12;;;;;;;32.96;39.50;98512.84;1745662;82;21040;-49
2021/07/15 08:34:07;;;;;;;17.70;7.10;;;;;;;32.84;39.53;98511.64;1747875;81;21128;-47
2021/07/15 08:36:36;;;;;;;12.28;6.62;;;;;;;32.69;39.48;98511.16;1759891;81;21072;-54
2021/07/15 08:39:06;;;;;;;13.50;6.42;;;;;;;32.60;39.63;98510.05;1754351;81;21550;-54
2021/07/15 08:41:34;;;;;;;14.15;6.55;;;;;;;32.66;38.74;98510.55;1744531;81;21066;-48
2021/07/15 08:44:04;;;;;;;13.30;6.65;;;;;;;32.72;39.31;98511.23;1752910;80;21082;-47
2021/07/15 08:46:36;;;;;;;15.25;6.40;;;;;;;32.75;38.18;98511.11;1744826;81;21007;-49
2021/07/15 08:49:04;;;;;;;13.70;6.60;;;;;;;32.70;38.32;98508.67;1731909;81;21516;-49
2021/07/15 08:51:34;;;;;;;10.88;6.58;;;;;;;32.66;37.92;98509.97;1743670;81;20995;-50
2021/07/15 08:54:03;;;;;;;12.23;6.80;;;;;;;32.65;38.48;98517.16;1741851;81;21560;-59
2021/07/15 08:56:38;;;;;;;12.10;6.22;;;;;;;32.64;38.21;98510.91;1744492;81;21031;-53
2021/07/15 08:59:07;;;;;;;17.67;6.83;;;;;;;32.64;37.84;98515.00;1748120;80;21091;-47
2021/07/15 09:01:35;;;;;;;13.68;6.53;;;;;;;32.65;37.73;98515.79;1745052;81;21027;-47
2021/07/15 09:04:04;;;;;;;13.40;6.85;;;;;;;32.58;37.80;98516.45;1743635;81;21038;-48
2021/07/15 09:06:31;;;;;;;15.90;6.25;;;;;;;32.63;37.64;98519.44;1741527;81;21055;-49
2021/07/15 09:08:59;;;;;;;17.77;7.33;;;;;;;32.67;37.09;98508.02;1719781;82;21087;-56
2021/07/15 09:11:27;;;;;;;16.35;6.67;;;;;;;32.72;37.09;98508.51;1723827;82;21054;-45
2021/07/15 09:13:54;;;;;;;28.75;7.78;;;;;;;32.77;37.06;98512.89;1745383;81;21043;-51
2021/07/15 09:16:24;;;;;;;13.00;6.87;;;;;;;32.85;37.20;98513.21;1751574;81;21003;-53
2021/07/15 09:19:04;;;;;;;12.37;6.37;;;;;;;32.97;37.52;98517.73;1755924;81;21548;-54
2021/07/15 09:21:33;;;;;;;11.55;6.35;;;;;;;33.03;38.18;98509.44;1762109;80;21043;-54
2021/07/15 09:24:03;;;;;;;13.05;6.35;;;;;;;33.01;38.07;98508.45;1752548;80;21504;-48
2021/07/15 09:26:32;;;;;;;13.25;6.87;;;;;;;33.04;37.98;98501.48;1765931;81;21498;-47
2021/07/15 09:29:17;;;;;;;15.20;7.05;;;;;;;33.02;38.64;98507.29;1720502;82;21052;-46
2021/07/15 09:31:57;;;;;;;16.00;6.67;;;;;;;32.99;37.87;98517.59;1733243;81;21589;-45
2021/07/15 09:34:28;;;;;;;;;;;;;;;33.00;37.44;98504.73;1730372;82;21031;-51
2021/07/15 09:36:55;;;;;;;13.25;6.87;;;;;;;33.05;37.34;98505.00;1723679;82;20106;-50
2021/07/15 09:39:29;;;;;;;13.28;7.03;;;;;;;33.04;37.43;98504.22;1728222;82;21156;-47
2021/07/15 09:42:14;;;;;;;10.45;6.70;;;;;;;33.06;37.38;98505.20;1718243;83;21510;-57
2021/07/15 09:44:44;;;;;;;13.55;6.58;;;;;;;33.06;38.05;98501.90;1715099;82;21114;-49
2021/07/15 09:47:32;;;;;;;13.80;6.80;;;;;;;33.13;37.93;98500.64;1719023;82;22464;-45
2021/07/15 09:50:03;;;;;;;13.13;6.90;;;;;;;33.17;37.48;98501.50;1730155;81;21553;-47
2021/07/15 09:52:31;;;;;;;13.60;6.37;;;;;;;33.26;37.28;98489.75;1717666;81;21036;-59
2021/07/15 09:55:20;;;;;;;12.60;6.80;;;;;;;33.37;36.94;98498.08;1721656;81;21586;-59
2021/07/15 09:58:05;;;;;;;13.32;6.45;;;;;;;33.47;36.60;98493.38;1718842;82;21027;-53
2021/07/15 10:00:35;;;;;;;12.23;6.70;;;;;;;33.59;36.09;98494.32;1698700;83;21042;-54
2021/07/15 10:03:05;;;;;;;12.90;6.92;;;;;;;33.57;36.05;98495.28;1726886;83;21065;-46
2021/07/15 10:05:35;;;;;;;12.78;6.17;;;;;;;33.54;36.32;98490.74;1726621;82;21114;-48
2021/07/15 10:08:08;;;;;;;11.78;6.65;;;;;;;33.53;36.83;98487.81;1710980;81;20999;-48
2021/07/15 10:10:37;;;;;;;12.58;6.85;;;;;;;33.54;36.55;98491.33;1735473;81;21584;-48
2021/07/15 10:13:17;;;;;;;14.03;6.58;;;;;;;33.49;36.41;98480.71;1755273;80;21010;-47
2021/07/15 10:15:46;;;;;;;15.35;6.58;;;;;;;33.39;36.27;98488.95;1767032;80;21486;-50
2021/07/15 10:18:35;;;;;;;13.38;6.37;;;;;;;33.35;36.82;98490.84;1726998;82;21061;-54
2021/07/15 10:21:04;;;;;;;11.30;6.55;;;;;;;33.33;36.62;98490.42;1699215;82;21576;-55
2021/07/15 10:23:40;;;;;;;10.10;6.33;;;;;;;33.38;36.46;98486.57;1694093;83;21082;-52
2021/07/15 10:26:10;;;;;;;10.00;6.90;;;;;;;33.40;35.78;98490.55;1748025;80;21100;-46
2021/07/15 10:28:47;;;;;;;14.80;6.45;;;;;;;33.41;35.98;98486.66;1746315;81;21039;-47
2021/07/15 10:31:16;;;;;;;10.90;6.70;;;;;;;33.51;35.91;98483.30;1721167;82;21092;-49
2021/07/15 10:33:46;;;;;;;15.75;6.15;;;;;;;33.59;35.66;98477.34;1753686;81;21515;-48
2021/07/15 10:36:14;;;;;;;11.33;6.70;;;;;;;33.59;36.08;98478.71;1751197;81;21036;-48
2021/07/15 10:38:45;;;;;;;12.73;6.33;;;;;;;33.61;35.72;98480.52;1749685;80;21044;-48
2021/07/15 10:41:13;;;;;;;14.68;6.58;;;;;;;33.59;35.57;98482.81;1761945;79;21011;-47
2021/07/15 10:43:41;;;;;;;12.85;6.40;;;;;;;33.56;34.39;98479.47;1753375;81;21034;-49
2021/07/15 10:46:09;;;;;;;10.40;6.55;;;;;;;33.54;34.99;98485.28;1759951;80;21015;-48
2021/07/15 10:48:38;;;;;;;14.30;6.00;;;;;;;33.53;34.72;98474.73;1748793;81;21579;-49
2021/07/15 10:51:09;;;;;;;11.97;6.15;;;;;;;33.52;34.91;98478.63;1744216;81;22214;-48
2021/07/15 10:53:39;;;;;;;13.10;6.33;;;;;;;33.52;35.01;98474.52;1752172;81;21588;-49
2021/07/15 10:56:07;;;;;;;9.05;5.67;;;;;;;33.60;34.85;98477.55;1755622;80;21164;-45
2021/07/15 10:58:52;;;;;;;17.60;6.92;;;;;;;33.74;35.01;98466.83;1755223;80;21024;-47
2021/07/15 11:01:38;;;;;;;13.65;6.03;;;;;;;33.86;34.95;98473.21;1748697;81;21011;-47
2021/07/15 11:04:13;;;;;;;12.80;6.65;;;;;;;33.97;34.83;98478.27;1742303;81;21045;-46
2021/07/15 11:06:43;;;;;;;12.47;6.45;;;;;;;34.04;35.20;98475.02;1742998;81;21005;-46
2021/07/15 11:09:35;;;;;;;15.20;6.60;;;;;;;34.02;35.55;98477.35;1746926;82;21029;-51
2021/07/15 11:12:25;;;;;;;12.13;6.22;;;;;;;34.01;35.66;98475.00;1723245;82;21686;-50
2021/07/15 11:15:06;;;;;;;13.43;6.33;;;;;;;33.99;35.68;98473.20;1728065;82;21592;-48
2021/07/15 11:17:45;;;;;;;15.23;6.83;;;;;;;34.02;35.43;98480.09;1725993;82;21030;-47
2021/07/15 11:20:29;;;;;;;16.35;6.30;;;;;;;34.06;34.58;98476.02;1723137;81;21023;-45
2021/07/15 11:23:10;;;;;;;14.38;5.92;;;;;;;34.06;34.69;98474.06;1748566;81;21050;-48
2021/07/15 11:25:39;;;;;;;16.10;6.15;;;;;;;34.01;34.50;98471.69;1750262;81;21538;-52
2021/07/15 11:28:20;;;;;;;10.23;5.65;;;;;;;33.96;34.64;98475.33;1753192;81;21482;-50
2021/07/15 11:30:54;;;;;;;13.32;6.00;;;;;;;34.02;34.46;98471.10;1756893;80;21072;-53
2021/07/15 11:33:28;;;;;;;12.28;6.37;;;;;;;34.13;34.61;98477.48;1735250;81;21069;-52
2021/07/15 11:36:07;;;;;;;16.02;6.58;;;;;;;34.05;34.86;98468.97;1741994;81;21144;-58
2021/07/15 11:38:55;;;;;;;13.55;6.05;;;;;;;33.90;35.07;98466.64;1743225;81;21009;-53
2021/07/15 11:41:40;;;;;;;9.78;6.28;;;;;;;33.76;35.37;98469.17;1725638;81;20987;-49
2021/07/15 11:44:08;;;;;;;10.10;6.47;;;;;;;33.67;35.53;98472.20;1704389;81;21098;-54
2021/07/15 11:46:37;;;;;;;10.10;6.15;;;;;;;33.73;36.14;98474.03;1757226;80;21565;-55
2021/07/15 11:49:19;;;;;;;10.63;5.87;;;;;;;33.80;35.41;98472.75;1753523;81;21038;-50
2021/07/15 11:52:01;;;;;;;10.23;5.97;;;;;;;33.90;34.83;98474.84;1745096;81;21540;-54
2021/07/15 11:54:36;;;;;;;15.18;6.45;;;;;;;34.04;34.82;98479.70;1739990;82;21521;-58
2021/07/15 11:57:18;;;;;;;10.93;5.95;;;;;;;34.12;34.65;98470.41;1746255;81;21567;-52
2021/07/15 12:00:07;;;;;;;10.15;6.50;;;;;;;34.06;34.20;98467.80;1744585;82;21037;-46
2021/07/15 12:02:46;;;;;;;10.88;6.42;;;;;;;33.97;34.64;98468.69;1750532;81;21565;-54
2021/07/15 12:05:29;;;;;;;11.30;6.00;;;;;;;33.96;34.38;98468.49;1749018;80;21008;-55
2021/07/15 12:08:16;;;;;;;11.68;5.85;;;;;;;33.95;34.67;98475.09;1741517;81;21548;-47
2021/07/15 12:10:46;;;;;;;13.95;6.17;;;;;;;34.01;34.52;98469.53;1759660;81;21071;-60
2021/07/15 12:13:16;;;;;;;13.50;6.15;;;;;;;34.06;34.52;98469.96;1747719;80;21070;-51
2021/07/15 12:15:47;;;;;;;10.65;6.08;;;;;;;34.04;34.60;98472.29;1745739;81;21050;-61
2021/07/15 12:18:21;;;;;;;13.43;6.70;;;;;;;34.00;35.20;98461.87;1754464;80;21498;-50
2021/07/15 12:20:54;;;;;;;11.60;6.37;;;;;;;34.02;34.96;98464.27;1756724;81;21166;-46
2021/07/15 12:23:33;;;;;;;13.90;6.10;;;;;;;33.96;35.17;98460.29;1754286;81;22467;-49
2021/07/15 12:26:04;;;;;;;14.38;6.30;;;;;;;33.86;35.37;98456.81;1750361;81;21592;-53
2021/07/15 12:28:32;;;;;;;12.10;5.75;;;;;;;33.74;35.02;98462.72;1751472;81;21063;-47
2021/07/15 12:31:03;;;;;;;11.55;6.35;;;;;;;33.73;34.98;98459.79;1744973;81;21019;-50
2021/07/15 12:33:43;;;;;;;9.23;6.03;;;;;;;33.80;34.85;98462.60;1745266;81;21081;-54
2021/07/15 12:36:14;;;;;;;10.32;5.83;;;;;;;33.88;34.33;98455.27;1755123;81;21494;-52
2021/07/15 12:38:48;;;;;;;11.22;6.35;;;;;;;33.90;34.23;98461.17;1757358;80;21132;-51
2021/07/15 12:41:29;;;;;;;11.65;6.45;;;;;;;33.90;34.20;98454.92;1737209;81;21528;-51
2021/07/15 12:44:01;;;;;;;13.43;6.35;;;;;;;33.90;33.80;98452.97;1746006;81;21164;-55
2021/07/15 12:46:36;;;;;;;10.48;6.17;;;;;;;33.89;34.08;98450.00;1739544;81;21489;-55
2021/07/15 12:49:08;;;;;;;12.28;6.45;;;;;;;33.85;34.18;98442.94;1742384;81;21030;-59
2021/07/15 12:51:46;;;;;;;14.58;6.58;;;;;;;33.83;33.24;98440.55;1758670;81;21553;-50
2021/07/15 12:54:20;;;;;;;10.98;6.10;;;;;;;33.84;33.59;98443.52;1735995;81;21044;-53
2021/07/15 12:56:50;;;;;;;9.10;5.80;;;;;;;33.86;33.34;98443.14;1744396;81;21037;-53
2021/07/15 12:59:19;;;;;;;14.93;6.47;;;;;;;33.81;33.15;98440.16;1741618;81;21514;-53
2021/07/15 13:01:47;;;;;;;11.40;6.55;;;;;;;33.77;33.19;98437.95;1668826;83;21758;-58
2021/07/15 13:04:17;;;;;;;13.75;6.95;;;;;;;33.77;33.65;98429.75;1736946;81;21035;-54
2021/07/15 13:06:50;;;;;;;15.60;6.47;;;;;;;33.77;33.82;98429.16;1753068;81;21117;-51
2021/07/15 13:14:38;;;;;;;15.95;6.37;;;;;;;33.79;35.06;98420.62;1770631;79;21100;-52
2021/07/15 13:17:07;;;;;;;;;;;;;;;33.76;35.62;98418.61;1758312;80;20976;-54
2021/07/15 13:19:42;;;;;;;14.25;5.78;;;;;;;33.74;35.78;98418.21;1748527;80;20505;-49
2021/07/15 13:22:15;;;;;;;12.35;6.60;;;;;;;33.70;35.70;98417.38;1754049;81;21066;-46
2021/07/15 13:24:47;;;;;;;13.80;5.70;;;;;;;33.67;36.25;98414.81;1746787;81;21032;-46
2021/07/15 13:27:20;;;;;;;13.43;6.45;;;;;;;33.68;36.32;98418.33;1749527;80;21461;-52
2021/07/15 13:29:50;;;;;;;11.35;6.50;;;;;;;33.65;36.06;98415.75;1737620;82;21026;-56
2021/07/15 13:32:25;;;;;;;13.28;6.05;;;;;;;33.63;36.23;98411.83;1701320;82;21634;-52
2021/07/15 13:34:55;;;;;;;15.00;6.45;;;;;;;33.63;36.06;98410.45;1722271;81;21091;-49
2021/07/15 13:37:32;;;;;;;16.90;6.55;;;;;;;33.58;36.38;98408.83;1758424;78;21488;-49
2021/07/15 13:40:27;;;;;;;13.25;7.10;;;;;;;33.52;36.30;98407.59;1776916;78;21138;-48
2021/07/15 13:43:09;;;;;;;12.90;6.37;;;;;;;33.52;36.01;98411.10;1768380;79;21055;-43
2021/07/15 13:45:43;;;;;;;11.38;5.87;;;;;;;33.51;35.48;98410.90;1786381;79;21572;-46
2021/07/15 13:48:25;;;;;;;11.48;5.95;;;;;;;33.48;35.12;98409.48;1756139;79;21412;-47
2021/07/15 13:51:02;;;;;;;12.37;6.03;;;;;;;33.45;34.92;98409.66;1743174;81;20993;-46
2021/07/15 13:53:31;;;;;;;12.28;5.78;;;;;;;33.42;34.79;98394.56;1684777;83;21589;-46
2021/07/15 13:55:58;;;;;;;9.98;5.45;;;;;;;33.38;34.13;98391.78;1667050;83;21087;-54
2021/07/15 13:58:27;;;;;;;11.10;5.92;;;;;;;33.38;34.78;98393.14;1708538;83;21084;-46
